sensor_id;sensor_type;location;lat;lon;timestamp;temperature;humidity
9201;DHT22;4635;48.686;9.008;2023-03-23T00:10:51;12.40;1.00
9201;DHT22;4635;48.686;9.008;2023-03-23T00:13:33;12.50;1.00
9201;DHT22;4635;48.686;9.008;2023-03-23T00:16:14;12.40;1.00
9201;DHT22;4635;48.686;9.008;2023-03-23T00:19:03;12.40;1.00
9201;DHT22;4635;48.686;9.008;2023-03-23T00:21:45;12.30;1.00
9201;DHT22;4635;48.686;9.008;2023-03-23T00:24:27;12.30;1.00
9201;DHT22;4635;48.686;9.008;2023-03-23T00:36:03;12.30;1.00
9201;DHT22;4635;48.686;9.008;2023-03-23T00:38:32;12.30;1.00
9201;DHT22;4635;48.686;9.008;2023-03-23T00:41:00;12.20;1.00
9201;DHT22;4635;48.686;9.008;2023-03-23T00:43:45;12.10;1.00
9201;DHT22;4635;48.686;9.008;2023-03-23T00:46:36;11.90;1.00
9201;DHT22;4635;48.686;9.008;2023-03-23T00:49:18;11.90;1.00
9201;DHT22;4635;48.686;9.008;2023-03-23T00:51:53;11.80;1.00
9201;DHT22;4635;48.686;9.008;2023-03-23T00:54:26;11.90;1.00
9201;DHT22;4635;48.686;9.008;2023-03-23T00:57:04;11.80;1.00
9201;DHT22;4635;48.686;9.008;2023-03-23T00:59:33;11.90;1.00
9201;DHT22;4635;48.686;9.008;2023-03-23T01:02:05;11.90;1.00
9201;DHT22;4635;48.686;9.008;2023-03-23T01:04:48;11.90;1.00
9201;DHT22;4635;48.686;9.008;2023-03-23T01:10:10;12.00;1.00
9201;DHT22;4635;48.686;9.008;2023-03-23T01:12:52;12.00;1.00
9201;DHT22;4635;48.686;9.008;2023-03-23T01:15:33;12.00;1.00
9201;DHT22;4635;48.686;9.008;2023-03-23T01:18:04;12.00;1.00
9201;DHT22;4635;48.686;9.008;2023-03-23T01:20:45;12.00;1.00
9201;DHT22;4635;48.686;9.008;2023-03-23T01:23:16;11.90;1.00
9201;DHT22;4635;48.686;9.008;2023-03-23T04:51:58;12.10;1.00
9201;DHT22;4635;48.686;9.008;2023-03-23T04:54:40;12.20;1.00
9201;DHT22;4635;48.686;9.008;2023-03-23T04:57:26;12.20;1.00
9201;DHT22;4635;48.686;9.008;2023-03-23T05:00:29;12.30;1.00
9201;DHT22;4635;48.686;9.008;2023-03-23T05:03:16;12.20;1.00
9201;DHT22;4635;48.686;9.008;2023-03-23T05:06:02;12.30;1.00
9201;DHT22;4635;48.686;9.008;2023-03-23T05:27:18;12.20;1.00
9201;DHT22;4635;48.686;9.008;2023-03-23T05:36:11;12.20;1.00
9201;DHT22;4635;48.686;9.008;2023-03-23T14:16:31;17.20;1.00
9201;DHT22;4635;48.686;9.008;2023-03-23T14:29:17;17.20;1.00
9201;DHT22;4635;48.686;9.008;2023-03-23T16:49:37;15.20;1.00
9201;DHT22;4635;48.686;9.008;2023-03-23T16:52:32;15.10;1.00
9201;DHT22;4635;48.686;9.008;2023-03-23T17:00:17;15.10;1.00
9201;DHT22;4635;48.686;9.008;2023-03-23T17:03:34;14.90;1.00
9201;DHT22;4635;48.686;9.008;2023-03-23T17:41:55;14.60;1.00
9201;DHT22;4635;48.686;9.008;2023-03-23T17:44:38;14.60;1.00
9201;DHT22;4635;48.686;9.008;2023-03-23T17:47:25;14.50;1.00
9201;DHT22;4635;48.686;9.008;2023-03-23T17:50:14;14.50;1.00
9201;DHT22;4635;48.686;9.008;2023-03-23T17:52:55;14.50;1.00
9201;DHT22;4635;48.686;9.008;2023-03-23T17:55:39;14.50;1.00
9201;DHT22;4635;48.686;9.008;2023-03-23T18:01:17;14.50;1.00
9201;DHT22;4635;48.686;9.008;2023-03-23T18:03:58;14.50;1.00
9201;DHT22;4635;48.686;9.008;2023-03-23T18:06:40;14.50;1.00
9201;DHT22;4635;48.686;9.008;2023-03-23T18:09:21;14.40;1.00
9201;DHT22;4635;48.686;9.008;2023-03-23T18:11:52;14.70;1.00
9201;DHT22;4635;48.686;9.008;2023-03-23T18:14:21;14.40;1.00
9201;DHT22;4635;48.686;9.008;2023-03-23T18:28:31;14.30;1.00
9201;DHT22;4635;48.686;9.008;2023-03-23T18:32:25;14.20;1.00
9201;DHT22;4635;48.686;9.008;2023-03-23T18:37:08;13.80;1.00
9201;DHT22;4635;48.686;9.008;2023-03-23T18:43:22;14.00;1.00
9201;DHT22;4635;48.686;9.008;2023-03-23T19:00:42;13.90;1.00
9201;DHT22;4635;48.686;9.008;2023-03-23T19:03:31;14.00;1.00
9201;DHT22;4635;48.686;9.008;2023-03-23T19:06:14;13.90;1.00
9201;DHT22;4635;48.686;9.008;2023-03-23T19:08:51;13.90;1.00
9201;DHT22;4635;48.686;9.008;2023-03-23T19:11:38;14.10;1.00
9201;DHT22;4635;48.686;9.008;2023-03-23T19:14:20;14.00;1.00
9201;DHT22;4635;48.686;9.008;2023-03-23T19:22:55;14.00;1.00
9201;DHT22;4635;48.686;9.008;2023-03-23T19:25:30;13.90;1.00
9201;DHT22;4635;48.686;9.008;2023-03-23T19:28:04;14.00;1.00
9201;DHT22;4635;48.686;9.008;2023-03-23T19:30:55;14.00;1.00
9201;DHT22;4635;48.686;9.008;2023-03-23T19:33:29;13.90;1.00
9201;DHT22;4635;48.686;9.008;2023-03-23T19:36:10;13.80;1.00
9201;DHT22;4635;48.686;9.008;2023-03-23T19:38:40;13.80;1.00
9201;DHT22;4635;48.686;9.008;2023-03-23T19:41:22;13.90;1.00
9201;DHT22;4635;48.686;9.008;2023-03-23T19:43:52;13.70;1.00
9201;DHT22;4635;48.686;9.008;2023-03-23T19:46:26;13.60;1.00
9201;DHT22;4635;48.686;9.008;2023-03-23T19:49:18;13.70;1.00
9201;DHT22;4635;48.686;9.008;2023-03-23T19:52:03;13.60;1.00
9201;DHT22;4635;48.686;9.008;2023-03-23T20:12:27;13.10;1.00
9201;DHT22;4635;48.686;9.008;2023-03-23T20:15:01;13.30;1.00
9201;DHT22;4635;48.686;9.008;2023-03-23T20:17:41;13.30;1.00
9201;DHT22;4635;48.686;9.008;2023-03-23T20:20:22;13.30;1.00
9201;DHT22;4635;48.686;9.008;2023-03-23T20:22:52;13.20;1.00
9201;DHT22;4635;48.686;9.008;2023-03-23T20:25:34;13.20;1.00
9201;DHT22;4635;48.686;9.008;2023-03-23T20:28:06;13.20;1.60
9201;DHT22;4635;48.686;9.008;2023-03-23T20:30:37;13.20;2.20
9201;DHT22;4635;48.686;9.008;2023-03-23T20:33:05;13.20;1.20
9201;DHT22;4635;48.686;9.008;2023-03-23T20:35:33;13.20;2.60
9201;DHT22;4635;48.686;9.008;2023-03-23T20:38:00;13.20;2.50
9201;DHT22;4635;48.686;9.008;2023-03-23T20:40:35;13.10;3.50
9201;DHT22;4635;48.686;9.008;2023-03-23T20:43:04;13.10;4.00
9201;DHT22;4635;48.686;9.008;2023-03-23T20:45:41;13.10;4.40
9201;DHT22;4635;48.686;9.008;2023-03-23T20:48:23;13.10;2.20
9201;DHT22;4635;48.686;9.008;2023-03-23T20:50:55;13.10;2.80
9201;DHT22;4635;48.686;9.008;2023-03-23T20:53:26;13.10;3.20
9201;DHT22;4635;48.686;9.008;2023-03-23T20:55:58;13.00;2.90
9201;DHT22;4635;48.686;9.008;2023-03-23T20:58:35;13.10;2.30
9201;DHT22;4635;48.686;9.008;2023-03-23T21:01:03;13.00;3.70
9201;DHT22;4635;48.686;9.008;2023-03-23T21:03:38;13.00;3.40
9201;DHT22;4635;48.686;9.008;2023-03-23T21:06:06;13.10;5.40
9201;DHT22;4635;48.686;9.008;2023-03-23T21:08:35;12.90;4.00
9201;DHT22;4635;48.686;9.008;2023-03-23T21:11:03;13.00;5.60
9201;DHT22;4635;48.686;9.008;2023-03-23T21:13:51;12.90;4.10
9201;DHT22;4635;48.686;9.008;2023-03-23T21:16:22;12.90;5.20
9201;DHT22;4635;48.686;9.008;2023-03-23T21:18:49;12.90;3.20
9201;DHT22;4635;48.686;9.008;2023-03-23T21:21:19;13.00;1.70
9201;DHT22;4635;48.686;9.008;2023-03-23T21:23:48;13.00;1.80
9201;DHT22;4635;48.686;9.008;2023-03-23T21:26:20;13.00;1.20
9201;DHT22;4635;48.686;9.008;2023-03-23T21:32:04;13.10;1.00
9201;DHT22;4635;48.686;9.008;2023-03-23T21:34:43;13.10;1.80
9201;DHT22;4635;48.686;9.008;2023-03-23T21:37:19;13.10;1.50
9201;DHT22;4635;48.686;9.008;2023-03-23T21:39:55;13.10;1.00
9201;DHT22;4635;48.686;9.008;2023-03-23T21:42:36;13.10;1.40
9201;DHT22;4635;48.686;9.008;2023-03-23T21:45:07;13.00;2.40
9201;DHT22;4635;48.686;9.008;2023-03-23T21:47:39;13.00;2.00
9201;DHT22;4635;48.686;9.008;2023-03-23T21:50:08;12.90;1.60
9201;DHT22;4635;48.686;9.008;2023-03-23T21:52:37;13.00;1.00
9201;DHT22;4635;48.686;9.008;2023-03-23T21:55:09;13.00;1.00
9201;DHT22;4635;48.686;9.008;2023-03-23T21:57:38;13.00;1.00
9201;DHT22;4635;48.686;9.008;2023-03-23T22:00:07;13.00;1.00
9201;DHT22;4635;48.686;9.008;2023-03-23T22:02:51;13.10;1.00
9201;DHT22;4635;48.686;9.008;2023-03-23T22:05:32;13.00;1.50
9201;DHT22;4635;48.686;9.008;2023-03-23T22:08:00;13.00;2.20
9201;DHT22;4635;48.686;9.008;2023-03-23T22:10:28;12.90;5.60
9201;DHT22;4635;48.686;9.008;2023-03-23T22:12:58;12.80;4.30
9201;DHT22;4635;48.686;9.008;2023-03-23T22:15:25;12.90;5.00
9201;DHT22;4635;48.686;9.008;2023-03-23T22:18:01;12.90;4.00
9201;DHT22;4635;48.686;9.008;2023-03-23T22:20:30;12.90;2.00
9201;DHT22;4635;48.686;9.008;2023-03-23T22:22:59;13.00;6.00
9201;DHT22;4635;48.686;9.008;2023-03-23T22:25:26;12.90;3.90
9201;DHT22;4635;48.686;9.008;2023-03-23T22:27:58;12.90;4.80
9201;DHT22;4635;48.686;9.008;2023-03-23T22:30:27;12.80;5.50
9201;DHT22;4635;48.686;9.008;2023-03-23T22:32:57;12.80;10.00
9201;DHT22;4635;48.686;9.008;2023-03-23T22:35:32;12.80;12.40
9201;DHT22;4635;48.686;9.008;2023-03-23T22:38:01;12.80;13.90
9201;DHT22;4635;48.686;9.008;2023-03-23T22:40:30;12.90;11.90
9201;DHT22;4635;48.686;9.008;2023-03-23T22:42:57;12.70;16.70
9201;DHT22;4635;48.686;9.008;2023-03-23T22:45:33;12.70;19.20
9201;DHT22;4635;48.686;9.008;2023-03-23T22:48:01;12.70;16.60
9201;DHT22;4635;48.686;9.008;2023-03-23T22:50:34;12.70;14.00
9201;DHT22;4635;48.686;9.008;2023-03-23T22:53:01;12.80;13.50
9201;DHT22;4635;48.686;9.008;2023-03-23T22:55:32;12.80;13.90
9201;DHT22;4635;48.686;9.008;2023-03-23T22:58:00;12.80;12.00
9201;DHT22;4635;48.686;9.008;2023-03-23T23:00:27;12.80;12.40
9201;DHT22;4635;48.686;9.008;2023-03-23T23:02:55;12.90;10.90
9201;DHT22;4635;48.686;9.008;2023-03-23T23:05:28;12.90;8.80
9201;DHT22;4635;48.686;9.008;2023-03-23T23:08:02;13.00;7.20
9201;DHT22;4635;48.686;9.008;2023-03-23T23:10:44;13.00;4.90
9201;DHT22;4635;48.686;9.008;2023-03-23T23:13:14;13.10;1.00
9201;DHT22;4635;48.686;9.008;2023-03-23T23:15:42;13.20;4.30
9201;DHT22;4635;48.686;9.008;2023-03-23T23:18:14;13.10;7.90
9201;DHT22;4635;48.686;9.008;2023-03-23T23:20:47;13.10;12.40
9201;DHT22;4635;48.686;9.008;2023-03-23T23:23:16;13.00;18.00
9201;DHT22;4635;48.686;9.008;2023-03-23T23:25:44;13.00;18.00
9201;DHT22;4635;48.686;9.008;2023-03-23T23:28:15;12.70;28.60
9201;DHT22;4635;48.686;9.008;2023-03-23T23:30:44;12.50;40.00
9201;DHT22;4635;48.686;9.008;2023-03-23T23:33:13;12.20;49.20
9201;DHT22;4635;48.686;9.008;2023-03-23T23:35:45;12.00;62.20
9201;DHT22;4635;48.686;9.008;2023-03-23T23:41:17;11.20;99.90
9201;DHT22;4635;48.686;9.008;2023-03-23T23:46:56;11.30;99.90
9201;DHT22;4635;48.686;9.008;2023-03-23T23:49:25;10.90;99.90
9201;DHT22;4635;48.686;9.008;2023-03-23T23:51:56;10.90;99.90
9201;DHT22;4635;48.686;9.008;2023-03-23T23:54:24;10.90;99.90
9201;DHT22;4635;48.686;9.008;2023-03-23T23:56:59;10.70;99.90
9201;DHT22;4635;48.686;9.008;2023-03-23T23:59:26;10.70;99.90
